Time;durP1;ratioP1;P1;durP2;ratioP2;P2;SDS_P1;SDS_P2;PMS_P1;PMS_P2;Temp;Humidity;BMP_temperature;BMP_pressure;BME280_temperature;BME280_humidity;BME280_pressure;Samples;Min_cycle;Max_cycle;Signal;HPM_P1;HPM_P2
2023/05/17 00:03:40;;;;;;;0.28;0.00;;;8.70;99.90;;;;;;25966869;22;20015;-51
2023/05/17 00:13:41;;;;;;;0.30;0.00;;;8.80;99.90;;;;;;25966807;22;20004;-59
2023/05/17 00:23:43;;;;;;;0.05;0.00;;;8.90;99.90;;;;;;25966626;22;20050;-50
2023/05/17 00:33:46;;;;;;;0.00;0.00;;;9.00;99.90;;;;;;25965477;22;20004;-49
2023/05/17 00:43:48;;;;;;;0.00;0.00;;;9.10;99.90;;;;;;25967664;22;20058;-49
2023/05/17 00:53:50;;;;;;;0.20;0.10;;;9.10;99.90;;;;;;25966589;22;20011;-59
2023/05/17 01:03:52;;;;;;;0.43;0.00;;;9.10;99.90;;;;;;25965029;22;20003;-47
2023/05/17 01:14:12;;;;;;;1.25;0.00;;;9.20;99.90;;;;;;25964757;22;20003;-48
2023/05/17 01:24:32;;;;;;;0.00;0.00;;;9.00;99.90;;;;;;26006816;22;20065;-59
2023/05/17 01:34:34;;;;;;;0.00;0.00;;;8.70;99.90;;;;;;25979169;22;20003;-50
2023/05/17 01:44:47;;;;;;;2.55;0.00;;;8.70;99.90;;;;;;25963726;22;20069;-49
2023/05/17 01:55:12;;;;;;;0.00;0.00;;;8.60;99.90;;;;;;25987238;22;20118;-51
2023/05/17 02:05:14;;;;;;;0.45;0.00;;;8.60;99.90;;;;;;25987054;22;20472;-50
2023/05/17 02:15:16;;;;;;;0.10;0.00;;;8.60;99.90;;;;;;25944350;22;20038;-58
2023/05/17 02:25:17;;;;;;;0.45;0.00;;;8.70;99.90;;;;;;25944090;22;20007;-47
2023/05/17 02:35:19;;;;;;;0.00;0.00;;;8.70;99.90;;;;;;25970594;22;20004;-59
2023/05/17 02:45:21;;;;;;;0.10;0.00;;;8.60;99.90;;;;;;25970537;22;20385;-49
2023/05/17 02:55:22;;;;;;;0.10;0.00;;;8.70;99.90;;;;;;25969879;22;20008;-59
2023/05/17 03:05:24;;;;;;;0.00;0.00;;;8.70;99.90;;;;;;25969541;22;20081;-50
2023/05/17 03:15:28;;;;;;;0.80;0.00;;;8.70;99.90;;;;;;25941988;22;19999;-50
2023/05/17 03:25:30;;;;;;;0.25;0.00;;;8.70;99.90;;;;;;25968505;22;20004;-48
2023/05/17 03:35:32;;;;;;;0.00;0.00;;;8.60;99.90;;;;;;25968355;22;20335;-48
2023/05/17 03:45:34;;;;;;;0.00;0.00;;;8.60;99.90;;;;;;25968271;22;20004;-58
2023/05/17 03:55:35;;;;;;;0.00;0.00;;;8.50;99.90;;;;;;25967659;22;20014;-58
2023/05/17 04:05:41;;;;;;;0.00;0.00;;;8.50;99.90;;;;;;25941522;22;20020;-46
2023/05/17 04:15:44;;;;;;;0.10;0.00;;;8.50;99.90;;;;;;25938958;22;20061;-57
2023/05/17 04:25:47;;;;;;;0.00;0.00;;;8.50;99.90;;;;;;25939229;22;19999;-58
2023/05/17 04:35:53;;;;;;;0.00;0.00;;;8.60;99.90;;;;;;25938790;22;20026;-58
2023/05/17 04:45:56;;;;;;;0.00;0.00;;;8.50;99.90;;;;;;25968357;22;20061;-47
2023/05/17 04:55:59;;;;;;;0.13;0.00;;;8.50;99.90;;;;;;25938100;22;20427;-58
2023/05/17 05:06:02;;;;;;;0.03;0.00;;;8.50;99.90;;;;;;25938035;22;20335;-48
2023/05/17 05:16:06;;;;;;;1.30;0.00;;;8.60;99.90;;;;;;25937732;22;20331;-58
2023/05/17 05:26:09;;;;;;;0.00;0.00;;;8.60;99.90;;;;;;25937173;22;20004;-58
2023/05/17 05:36:11;;;;;;;0.00;0.00;;;8.70;99.90;;;;;;25936918;22;20011;-48
2023/05/17 05:46:12;;;;;;;0.25;0.00;;;8.80;99.90;;;;;;25911303;22;20016;-58
2023/05/17 05:56:19;;;;;;;0.00;0.00;;;8.80;99.90;;;;;;25936636;22;20015;-48
2023/05/17 06:06:20;;;;;;;0.00;0.00;;;8.70;99.90;;;;;;25909929;22;20089;-49
2023/05/17 06:16:22;;;;;;;0.00;0.00;;;8.70;99.90;;;;;;25963463;22;20004;-50
2023/05/17 06:26:24;;;;;;;0.00;0.00;;;8.50;99.90;;;;;;25963276;22;20003;-58
2023/05/17 06:36:26;;;;;;;0.00;0.00;;;8.40;99.90;;;;;;25965887;22;20492;-48
2023/05/17 06:46:28;;;;;;;0.00;0.00;;;8.40;99.90;;;;;;25970268;22;20027;-58
2023/05/17 06:56:30;;;;;;;0.77;0.00;;;8.60;99.90;;;;;;25943289;22;20034;-58
2023/05/17 07:06:32;;;;;;;0.22;0.00;;;8.90;99.90;;;;;;25969473;22;20007;-49
2023/05/17 07:16:33;;;;;;;1.25;0.00;;;9.20;99.90;;;;;;25969047;22;19999;-58
2023/05/17 07:26:35;;;;;;;0.10;0.00;;;9.40;99.90;;;;;;25968877;22;20003;-58
2023/05/17 07:36:36;;;;;;;0.10;0.00;;;9.20;99.90;;;;;;25967190;22;20015;-50
2023/05/17 07:46:38;;;;;;;0.00;0.00;;;9.20;99.90;;;;;;25967862;22;20085;-47
2023/05/17 07:56:40;;;;;;;0.00;0.00;;;9.50;99.90;;;;;;25967693;22;20014;-57
2023/05/17 08:06:44;;;;;;;0.00;0.00;;;9.90;99.90;;;;;;25967252;22;20378;-58
2023/05/17 08:16:46;;;;;;;0.00;0.00;;;10.40;99.90;;;;;;25966402;22;20026;-49
2023/05/17 08:26:47;;;;;;;0.00;0.00;;;11.20;99.90;;;;;;25966185;22;20011;-51
2023/05/17 08:36:49;;;;;;;0.20;0.00;;;11.60;98.40;;;;;;25965145;22;20007;-48
2023/05/17 08:46:52;;;;;;;0.00;0.00;;;11.70;98.80;;;;;;25962426;22;20011;-51
2023/05/17 08:56:58;;;;;;;0.00;0.00;;;12.20;99.60;;;;;;25964823;22;20501;-53
2023/05/17 09:07:00;;;;;;;1.00;0.00;;;12.40;98.50;;;;;;26006086;22;20057;-49
2023/05/17 09:17:02;;;;;;;0.20;0.00;;;13.40;96.90;;;;;;25964610;22;20004;-59
2023/05/17 09:27:04;;;;;;;0.00;0.00;;;12.60;98.90;;;;;;25964599;22;20007;-58
2023/05/17 09:37:13;;;;;;;0.30;0.00;;;12.50;98.10;;;;;;25964326;22;20003;-58
2023/05/17 09:47:40;;;;;;;0.00;0.00;;;13.60;97.10;;;;;;25960849;22;20073;-61
2023/05/17 09:57:42;;;;;;;4.68;0.10;;;14.20;95.40;;;;;;25959106;22;20007;-58
2023/05/17 10:07:45;;;;;;;0.00;0.00;;;15.00;94.10;;;;;;25964108;22;20000;-49
2023/05/17 10:17:47;;;;;;;0.00;0.00;;;14.50;93.70;;;;;;25971391;22;20007;-58
2023/05/17 10:27:50;;;;;;;0.20;0.00;;;14.50;98.00;;;;;;25971547;22;20080;-46
2023/05/17 10:37:52;;;;;;;0.20;0.00;;;15.60;92.90;;;;;;25970349;22;20438;-50
2023/05/17 10:47:54;;;;;;;1.10;0.00;;;15.40;92.30;;;;;;25970227;22;20016;-59
2023/05/17 10:58:19;;;;;;;0.63;0.00;;;15.30;98.60;;;;;;25970059;22;19999;-60
2023/05/17 11:08:21;;;;;;;0.43;0.00;;;16.30;94.10;;;;;;26011199;22;20085;-50
2023/05/17 11:18:22;;;;;;;0.25;0.00;;;16.20;91.90;;;;;;25968911;22;20011;-59
2023/05/17 11:28:25;;;;;;;1.30;0.00;;;15.10;92.00;;;;;;25969040;22;20057;-58
2023/05/17 11:38:31;;;;;;;0.20;0.00;;;13.70;94.60;;;;;;25968305;22;20011;-48
2023/05/17 11:48:33;;;;;;;0.22;0.00;;;13.90;97.10;;;;;;25965780;22;20341;-51
2023/05/17 11:58:35;;;;;;;2.58;1.35;;;13.20;93.20;;;;;;25967649;22;20004;-58
2023/05/17 12:08:41;;;;;;;4.35;2.63;;;12.70;99.90;;;;;;25965914;22;20053;-50
2023/05/17 12:18:47;;;;;;;7.50;3.00;;;13.50;99.90;;;;;;25981698;22;20057;-58
2023/05/17 12:28:53;;;;;;;5.20;2.75;;;14.40;99.90;;;;;;26009742;22;20000;-58
2023/05/17 12:38:56;;;;;;;5.65;2.65;;;15.10;99.90;;;;;;25966619;22;20008;-58
2023/05/17 12:49:05;;;;;;;4.78;2.92;;;15.20;99.90;;;;;;25965195;22;20030;-58
2023/05/17 12:59:10;;;;;;;4.27;2.70;;;15.10;99.90;;;;;;26007780;22;20000;-58
2023/05/17 13:09:13;;;;;;;6.43;3.28;;;15.10;99.90;;;;;;25963643;22;20004;-58
2023/05/17 13:19:14;;;;;;;4.93;3.17;;;14.90;99.90;;;;;;25966050;22;20085;-58
2023/05/17 13:29:16;;;;;;;4.22;3.40;;;14.90;99.90;;;;;;25964560;22;20042;-58
2023/05/17 13:39:18;;;;;;;5.40;3.35;;;14.10;99.90;;;;;;25963668;22;20011;-58
2023/05/17 13:49:20;;;;;;;3.92;2.50;;;13.70;99.90;;;;;;25971966;22;20015;-58
2023/05/17 13:59:21;;;;;;;2.90;2.10;;;13.80;99.90;;;;;;25972365;22;20326;-51
2023/05/17 14:09:23;;;;;;;3.67;2.05;;;13.70;99.90;;;;;;25970793;22;20323;-50
2023/05/17 14:19:25;;;;;;;3.63;2.30;;;13.60;99.90;;;;;;25971501;22;20435;-59
2023/05/17 14:29:26;;;;;;;4.07;1.50;;;13.70;99.90;;;;;;25971516;22;20439;-59
2023/05/17 14:39:28;;;;;;;4.30;1.23;;;14.50;99.90;;;;;;25970783;22;20007;-59
2023/05/17 14:49:29;;;;;;;2.50;1.00;;;15.00;99.90;;;;;;25970424;22;20446;-59
2023/05/17 14:59:31;;;;;;;3.05;1.52;;;14.70;99.90;;;;;;25969962;22;20066;-59
2023/05/17 15:09:38;;;;;;;3.13;1.60;;;14.50;99.90;;;;;;25969686;22;20049;-58
2023/05/17 15:19:40;;;;;;;1.65;0.82;;;14.50;99.90;;;;;;25984408;22;20000;-59
2023/05/17 15:29:44;;;;;;;0.95;0.68;;;14.60;99.90;;;;;;25969067;22;20011;-59
2023/05/17 15:39:45;;;;;;;2.35;0.95;;;14.40;99.90;;;;;;25968264;22;20088;-59
2023/05/17 15:49:47;;;;;;;2.60;1.00;;;14.20;99.90;;;;;;25967994;22;20020;-59
2023/05/17 15:59:49;;;;;;;1.25;0.70;;;13.90;99.90;;;;;;25968736;22;20603;-59
2023/05/17 16:09:51;;;;;;;4.05;1.15;;;13.60;99.90;;;;;;25967485;22;20003;-52
2023/05/17 16:19:53;;;;;;;1.85;0.90;;;13.40;99.90;;;;;;25966565;22;20374;-59
2023/05/17 16:29:55;;;;;;;2.17;0.82;;;12.90;99.90;;;;;;25939363;22;20069;-59
2023/05/17 16:39:57;;;;;;;2.40;0.80;;;12.20;99.90;;;;;;25965738;22;19999;-58
2023/05/17 16:50:00;;;;;;;2.03;1.23;;;11.90;99.90;;;;;;25965468;22;20088;-59
2023/05/17 17:00:02;;;;;;;1.85;0.40;;;12.00;99.90;;;;;;25938275;22;20277;-58
2023/05/17 17:10:06;;;;;;;0.88;0.30;;;11.90;99.90;;;;;;25964701;22;20000;-58
2023/05/17 17:20:08;;;;;;;3.40;1.50;;;11.70;99.90;;;;;;25962618;22;20042;-58
2023/05/17 17:30:11;;;;;;;1.95;1.50;;;11.50;99.90;;;;;;25964485;22;20000;-58
2023/05/17 17:40:12;;;;;;;3.00;1.55;;;11.10;99.90;;;;;;25963189;22;20428;-57
2023/05/17 17:50:14;;;;;;;2.67;0.20;;;10.90;99.90;;;;;;25963997;22;20012;-51
2023/05/17 18:00:16;;;;;;;0.38;0.17;;;10.50;99.90;;;;;;25963906;22;20004;-58
2023/05/17 18:10:18;;;;;;;0.57;0.20;;;10.10;99.90;;;;;;25963570;22;20059;-49
2023/05/17 18:20:24;;;;;;;1.13;0.20;;;9.70;99.90;;;;;;25963431;22;20004;-52
2023/05/17 18:30:26;;;;;;;1.25;0.95;;;9.30;99.90;;;;;;26008266;22;20007;-49
2023/05/17 18:40:28;;;;;;;0.38;0.20;;;8.60;99.90;;;;;;25969300;22;20011;-51
2023/05/17 18:50:31;;;;;;;1.33;0.10;;;8.00;99.90;;;;;;25973432;22;20078;-51
2023/05/17 19:00:33;;;;;;;1.45;0.30;;;7.70;99.90;;;;;;25969845;22;20039;-57
2023/05/17 19:10:35;;;;;;;0.80;0.20;;;7.40;99.90;;;;;;25969009;22;20427;-48
2023/05/17 19:20:37;;;;;;;0.13;0.10;;;7.00;99.90;;;;;;25968399;22;20327;-58
2023/05/17 19:30:38;;;;;;;0.65;0.10;;;6.60;99.90;;;;;;25968553;22;20018;-51
2023/05/17 19:40:40;;;;;;;0.68;0.20;;;6.40;99.90;;;;;;25966383;22;20007;-58
2023/05/17 19:50:43;;;;;;;0.80;0.28;;;6.40;99.90;;;;;;25967941;22;20015;-57
2023/05/17 20:00:45;;;;;;;0.10;0.10;;;6.80;99.90;;;;;;25940032;22;20004;-49
2023/05/17 20:10:48;;;;;;;2.17;0.10;;;7.50;99.90;;;;;;25966646;22;20269;-58
2023/05/17 20:20:52;;;;;;;0.08;0.08;;;8.30;99.90;;;;;;25966056;22;20066;-51
2023/05/17 20:30:54;;;;;;;0.10;0.00;;;8.60;99.90;;;;;;25965800;22;20004;-47
2023/05/17 20:40:57;;;;;;;1.27;0.10;;;8.70;99.90;;;;;;25966641;22;20010;-57
2023/05/17 20:50:59;;;;;;;0.82;0.10;;;8.60;99.90;;;;;;25937262;22;20081;-49
2023/05/17 21:01:01;;;;;;;0.35;0.10;;;8.70;99.90;;;;;;25964483;22;20454;-49
2023/05/17 21:11:03;;;;;;;0.13;0.10;;;8.60;99.90;;;;;;25964516;22;20461;-58
2023/05/17 21:21:05;;;;;;;0.47;0.10;;;8.50;99.90;;;;;;25963965;22;20003;-58
2023/05/17 21:31:07;;;;;;;0.20;0.10;;;8.20;99.90;;;;;;25936675;22;20057;-57
2023/05/17 21:41:09;;;;;;;0.25;0.10;;;7.90;99.90;;;;;;25962889;22;20004;-50
2023/05/17 21:51:12;;;;;;;0.10;0.10;;;7.60;99.90;;;;;;25963320;22;20016;-58
2023/05/17 22:01:16;;;;;;;2.35;0.20;;;7.40;99.90;;;;;;25963498;22;20049;-47
2023/05/17 22:11:21;;;;;;;0.08;0.08;;;7.30;99.90;;;;;;25971668;22;20061;-58
2023/05/17 22:21:23;;;;;;;0.63;0.17;;;7.30;99.90;;;;;;25971193;22;20022;-51
2023/05/17 22:31:25;;;;;;;0.10;0.10;;;7.50;99.90;;;;;;25971441;22;20438;-59
2023/05/17 22:41:26;;;;;;;0.17;0.10;;;7.40;99.90;;;;;;25918162;22;20053;-52
2023/05/17 22:51:28;;;;;;;0.28;0.10;;;7.40;99.90;;;;;;25969909;22;20222;-48
2023/05/17 23:01:30;;;;;;;0.28;0.10;;;7.30;99.90;;;;;;25970010;22;20388;-51
2023/05/17 23:11:33;;;;;;;0.95;0.17;;;7.40;99.90;;;;;;25969372;22;20706;-57
2023/05/17 23:21:35;;;;;;;0.25;0.20;;;7.30;99.90;;;;;;25968745;22;20023;-58
2023/05/17 23:31:37;;;;;;;0.95;0.22;;;7.10;99.90;;;;;;25968610;22;19995;-50
2023/05/17 23:41:39;;;;;;;0.20;0.20;;;6.80;99.90;;;;;;25968266;22;20082;-50
2023/05/17 23:51:40;;;;;;;0.57;0.30;;;6.50;99.90;;;;;;25967547;22;20012;-52
